Terminal Aerodrome Forecast
Issued by NWS Twin Cities, MN

Home | Current Version | Previous Version | Graphics & Text | Print | Product List | Glossary On
Versions: 1 2 3 4 5 6 7 8 9 10 11 12 13 14 15 16 17 18 19 20
000
FTUS43 KMPX 272339
TAFSTC
TAF
KSTC 272339Z 2800/2824 17011KT P6SM SCT050 BKN250
     FM280400 15005KT P6SM SCT040 BKN100
     FM281000 12005KT P6SM SCT007 OVC020
     FM281600 13008KT P6SM SCT030 BKN050=

USA.gov is the U.S. government's official web portal to all federal, state and local government web resources and services.